createdAt,value
2019-03-16T00:01:57.004Z,7.95
2019-03-16T00:04:19.600Z,5.80
2019-03-16T00:06:49.362Z,5.75
2019-03-16T00:09:19.094Z,7.67
2019-03-16T00:11:48.905Z,5.05
2019-03-16T00:14:19.691Z,5.37
2019-03-16T00:16:49.482Z,4.80
2019-03-16T00:19:19.219Z,10.43
2019-03-16T00:21:48.983Z,6.80
2019-03-16T00:24:18.724Z,5.50
2019-03-16T00:26:48.446Z,5.33
2019-03-16T00:29:18.175Z,5.35
2019-03-16T00:31:51.643Z,7.35
2019-03-16T00:34:21.376Z,8.75
2019-03-16T00:36:51.147Z,3.98
2019-03-16T00:39:20.867Z,5.87
2019-03-16T00:41:51.483Z,6.30
2019-03-16T00:44:21.239Z,4.72
2019-03-16T00:46:51.008Z,6.40
2019-03-16T00:49:20.742Z,4.72
2019-03-16T00:51:50.489Z,5.28
2019-03-16T00:54:20.222Z,6.10
2019-03-16T00:56:50.843Z,4.40
2019-03-16T00:59:20.718Z,7.17
2019-03-16T01:01:50.454Z,6.50
2019-03-16T01:04:20.225Z,7.90
2019-03-16T01:06:49.943Z,7.33
2019-03-16T01:09:19.671Z,7.65
2019-03-16T01:11:49.397Z,5.58
2019-03-16T01:14:19.127Z,3.85
2019-03-16T01:16:49.881Z,7.40
2019-03-16T01:19:19.618Z,4.15
2019-03-16T01:21:49.342Z,7.35
2019-03-16T01:24:19.074Z,3.75
2019-03-16T01:26:48.799Z,8.20
2019-03-16T01:29:18.567Z,6.22
2019-03-16T01:31:48.283Z,4.47
2019-03-16T01:34:18.042Z,4.75
2019-03-16T01:36:47.771Z,5.50
2019-03-16T01:39:17.506Z,6.53
2019-03-16T01:41:47.243Z,1.82
2019-03-16T01:44:17.755Z,3.98
2019-03-16T01:46:47.535Z,4.95
2019-03-16T01:49:17.250Z,3.20
2019-03-16T01:51:47.014Z,5.40
2019-03-16T01:54:16.744Z,5.85
2019-03-16T01:56:46.480Z,3.95
2019-03-16T01:59:16.207Z,4.03
2019-03-16T02:01:49.088Z,4.40
2019-03-16T02:04:17.414Z,7.60
2019-03-16T02:06:47.155Z,5.62
2019-03-16T02:09:16.930Z,11.63
2019-03-16T02:11:46.662Z,10.25
2019-03-16T02:14:16.391Z,10.70
2019-03-16T02:16:46.118Z,4.15
2019-03-16T02:19:15.842Z,10.20
2019-03-16T02:21:45.697Z,6.55
2019-03-16T02:24:15.528Z,6.22
2019-03-16T02:26:45.294Z,6.75
2019-03-16T02:29:16.106Z,6.67
2019-03-16T02:31:45.886Z,5.45
2019-03-16T02:34:15.728Z,6.20
2019-03-16T02:36:50.872Z,8.48
2019-03-16T02:39:20.590Z,7.47
2019-03-16T02:41:50.317Z,9.58
2019-03-16T02:44:20.046Z,7.20
2019-03-16T02:46:49.776Z,8.78
2019-03-16T02:49:20.559Z,7.92
2019-03-16T02:51:50.290Z,8.75
2019-03-16T02:54:20.061Z,4.72
2019-03-16T02:56:49.781Z,6.30
2019-03-16T02:59:19.515Z,11.48
2019-03-16T03:01:50.253Z,6.80
2019-03-16T03:04:19.985Z,12.65
2019-03-16T03:06:49.787Z,10.18
2019-03-16T03:09:19.522Z,10.63
2019-03-16T03:11:49.241Z,6.80
2019-03-16T03:14:18.968Z,6.00
2019-03-16T03:16:48.696Z,11.05
2019-03-16T03:19:18.485Z,5.47
2019-03-16T03:21:48.219Z,5.75
2019-03-16T03:24:18.005Z,9.48
2019-03-16T03:26:47.728Z,6.05
2019-03-16T03:29:17.467Z,4.95
2019-03-16T03:31:47.193Z,8.43
2019-03-16T03:34:16.985Z,11.03
2019-03-16T03:36:46.692Z,4.78
2019-03-16T03:39:16.416Z,6.28
2019-03-16T03:41:46.157Z,7.97
2019-03-16T03:44:15.891Z,6.05
2019-03-16T03:46:45.654Z,3.60
2019-03-16T03:49:15.382Z,9.73
2019-03-16T03:51:45.142Z,6.72
2019-03-16T03:54:14.873Z,8.85
2019-03-16T03:56:44.609Z,6.62
2019-03-16T03:59:14.424Z,6.87
2019-03-16T04:01:44.183Z,6.47
2019-03-16T04:04:15.995Z,6.30
2019-03-16T04:06:45.334Z,8.68
2019-03-16T04:09:15.042Z,4.83
2019-03-16T04:11:44.784Z,7.70
2019-03-16T04:14:14.507Z,6.55
2019-03-16T04:16:44.248Z,12.47
2019-03-16T04:19:14.021Z,9.13
2019-03-16T04:21:43.739Z,9.70
2019-03-16T04:24:13.479Z,6.60
2019-03-16T04:26:43.212Z,4.03
2019-03-16T04:29:13.095Z,5.22
2019-03-16T04:31:42.850Z,6.20
2019-03-16T04:34:12.572Z,6.65
2019-03-16T04:36:42.575Z,5.97
2019-03-16T04:39:12.314Z,6.72
2019-03-16T04:41:42.311Z,7.12
2019-03-16T04:44:12.083Z,11.75
2019-03-16T04:46:42.819Z,6.30
2019-03-16T04:49:12.602Z,5.35
2019-03-16T04:51:42.330Z,7.03
2019-03-16T04:54:12.059Z,8.03
2019-03-16T04:56:41.819Z,12.07
2019-03-16T04:59:11.542Z,6.87
2019-03-16T05:01:41.264Z,6.60
2019-03-16T05:04:11.006Z,8.10
2019-03-16T05:06:40.726Z,8.30
2019-03-16T05:09:10.491Z,5.08
2019-03-16T05:11:40.235Z,5.22
2019-03-16T05:14:10.003Z,11.73
2019-03-16T05:16:39.747Z,6.20
2019-03-16T05:19:09.776Z,7.33
2019-03-16T05:21:45.219Z,6.35
2019-03-16T05:24:15.000Z,19.02
2019-03-16T05:26:44.719Z,6.12
2019-03-16T05:29:14.456Z,7.30
2019-03-16T05:31:44.183Z,8.73
2019-03-16T05:34:13.955Z,11.33
2019-03-16T05:36:43.691Z,12.55
2019-03-16T05:39:13.436Z,14.23
2019-03-16T05:41:43.175Z,12.05
2019-03-16T05:44:12.902Z,6.60
2019-03-16T05:46:42.667Z,10.43
2019-03-16T05:49:12.390Z,6.10
2019-03-16T05:51:42.177Z,12.15
2019-03-16T05:54:11.897Z,11.93
2019-03-16T05:56:41.926Z,6.12
2019-03-16T05:59:11.655Z,8.93
2019-03-16T06:01:41.379Z,8.73
2019-03-16T06:04:11.145Z,12.00
2019-03-16T06:06:40.878Z,10.93
2019-03-16T06:09:10.611Z,10.95
2019-03-16T06:11:40.340Z,10.75
2019-03-16T06:14:10.075Z,6.00
2019-03-16T06:16:39.837Z,10.38
2019-03-16T06:19:09.559Z,7.10
2019-03-16T06:21:39.285Z,8.03
2019-03-16T06:24:09.034Z,16.10
2019-03-16T06:26:38.748Z,9.88
2019-03-16T06:29:08.534Z,13.38
2019-03-16T06:31:38.296Z,8.68
2019-03-16T06:34:08.071Z,10.98
2019-03-16T06:36:37.787Z,9.48
2019-03-16T06:39:07.847Z,11.55
2019-03-16T06:41:37.590Z,10.30
2019-03-16T06:44:07.330Z,13.10
2019-03-16T06:46:37.067Z,9.15
2019-03-16T06:49:06.838Z,10.00
2019-03-16T06:51:36.565Z,9.80
2019-03-16T06:54:06.298Z,13.13
2019-03-16T06:56:36.050Z,10.95
2019-03-16T06:59:05.771Z,8.78
2019-03-16T07:01:35.590Z,11.60
2019-03-16T07:04:05.713Z,9.63
2019-03-16T07:06:35.498Z,11.78
2019-03-16T07:09:07.434Z,11.88
2019-03-16T07:11:38.402Z,14.20
2019-03-16T07:14:08.122Z,14.20
2019-03-16T07:16:37.894Z,13.45
2019-03-16T07:19:07.632Z,14.28
2019-03-16T07:21:37.350Z,11.65
2019-03-16T07:24:07.083Z,18.48
2019-03-16T07:26:36.819Z,15.40
2019-03-16T07:29:06.682Z,11.93
2019-03-16T07:31:36.410Z,15.75
2019-03-16T07:34:06.171Z,10.35
2019-03-16T07:36:36.328Z,9.73
2019-03-16T07:39:07.375Z,11.53
2019-03-16T07:41:37.109Z,14.00
2019-03-16T07:44:06.887Z,12.95
2019-03-16T07:46:36.610Z,9.28
2019-03-16T07:49:06.357Z,12.55
2019-03-16T07:51:36.103Z,8.60
2019-03-16T07:54:05.847Z,15.23
2019-03-16T07:56:35.637Z,15.93
2019-03-16T07:59:05.375Z,12.13
2019-03-16T08:01:35.102Z,14.73
2019-03-16T08:04:04.893Z,13.53
2019-03-16T08:06:34.626Z,13.58
2019-03-16T08:09:05.577Z,17.05
2019-03-16T08:11:35.526Z,20.25
2019-03-16T08:14:05.258Z,12.05
2019-03-16T08:16:35.023Z,10.00
2019-03-16T08:19:04.766Z,11.50
2019-03-16T08:21:34.503Z,13.38
2019-03-16T08:24:04.244Z,16.48
2019-03-16T08:26:33.960Z,17.25
2019-03-16T08:29:03.831Z,14.35
2019-03-16T08:31:33.577Z,11.88
2019-03-16T08:34:03.292Z,17.42
2019-03-16T08:36:33.034Z,15.48
2019-03-16T08:39:02.770Z,16.27
2019-03-16T08:41:32.547Z,14.35
2019-03-16T08:44:02.270Z,18.55
2019-03-16T08:46:32.051Z,18.57
2019-03-16T08:49:01.782Z,82.12
2019-03-16T08:51:31.958Z,30.32
2019-03-16T08:54:01.696Z,49.85
2019-03-16T08:56:31.475Z,27.42
2019-03-16T08:59:01.219Z,32.30
2019-03-16T09:01:30.988Z,18.30
2019-03-16T09:04:00.743Z,15.95
2019-03-16T09:06:30.462Z,22.95
2019-03-16T09:09:00.200Z,16.20
2019-03-16T09:11:29.931Z,17.95
2019-03-16T09:13:59.703Z,27.40
2019-03-16T09:16:29.438Z,38.67
2019-03-16T09:18:59.209Z,14.43
2019-03-16T09:21:28.948Z,16.75
2019-03-16T09:23:58.684Z,13.85
2019-03-16T09:26:28.417Z,18.92
2019-03-16T09:29:00.257Z,17.02
2019-03-16T09:31:41.124Z,13.65
2019-03-16T09:34:11.299Z,21.37
2019-03-16T09:36:41.038Z,25.55
2019-03-16T09:39:10.775Z,14.38
2019-03-16T09:41:40.523Z,35.63
2019-03-16T09:44:10.258Z,44.35
2019-03-16T09:46:40.031Z,15.18
2019-03-16T09:49:10.142Z,24.32
2019-03-16T09:51:40.026Z,21.95
2019-03-16T09:54:09.755Z,18.50
2019-03-16T09:56:39.584Z,20.15
2019-03-16T09:59:09.330Z,16.02
2019-03-16T10:01:39.053Z,15.72
2019-03-16T10:04:08.960Z,23.62
2019-03-16T10:06:38.695Z,27.70
2019-03-16T10:09:08.431Z,15.50
2019-03-16T10:11:38.174Z,18.48
2019-03-16T10:14:07.898Z,23.05
2019-03-16T10:16:37.662Z,17.57
2019-03-16T10:19:07.393Z,15.32
2019-03-16T10:21:37.172Z,15.13
2019-03-16T10:24:06.901Z,14.78
2019-03-16T10:26:37.651Z,17.85
2019-03-16T10:29:07.662Z,17.77
2019-03-16T10:31:37.442Z,13.00
2019-03-16T10:34:07.180Z,10.75
2019-03-16T10:36:36.967Z,12.40
2019-03-16T10:39:07.002Z,9.78
2019-03-16T10:41:36.751Z,15.32
2019-03-16T10:44:06.490Z,17.37
2019-03-16T10:46:36.229Z,12.78
2019-03-16T10:49:06.008Z,12.43
2019-03-16T10:51:35.735Z,12.45
2019-03-16T10:54:05.496Z,14.58
2019-03-16T10:56:35.199Z,12.82
2019-03-16T10:59:05.409Z,9.30
2019-03-16T11:01:37.495Z,8.95
2019-03-16T11:04:07.247Z,17.60
2019-03-16T11:06:37.018Z,12.15
2019-03-16T11:09:07.357Z,16.52
2019-03-16T11:11:37.171Z,15.20
2019-03-16T11:14:06.935Z,14.85
2019-03-16T11:16:36.671Z,15.80
2019-03-16T11:19:06.912Z,9.00
2019-03-16T11:21:36.639Z,16.17
2019-03-16T11:24:06.419Z,10.65
2019-03-16T11:26:36.167Z,15.10
2019-03-16T11:29:09.248Z,11.60
2019-03-16T11:31:37.402Z,12.53
2019-03-16T11:34:07.194Z,8.60
2019-03-16T11:36:36.916Z,11.30
2019-03-16T11:39:07.997Z,18.07
2019-03-16T11:41:37.790Z,14.40
2019-03-16T11:44:07.518Z,10.58
2019-03-16T11:46:37.258Z,10.65
2019-03-16T11:49:06.999Z,17.98
2019-03-16T11:51:36.754Z,9.90
2019-03-16T11:54:06.490Z,15.58
2019-03-16T11:56:36.259Z,12.10
2019-03-16T11:59:05.999Z,17.48
2019-03-16T12:01:35.738Z,17.07
2019-03-16T12:04:05.486Z,14.47
2019-03-16T12:06:35.226Z,10.58
2019-03-16T12:09:06.983Z,17.60
2019-03-16T12:14:05.534Z,7.67
2019-03-16T12:16:36.270Z,12.85
2019-03-16T12:19:06.003Z,8.10
2019-03-16T12:21:35.903Z,20.08
2019-03-16T12:24:05.626Z,14.00
2019-03-16T14:05:55.468Z,22.65
2019-03-16T14:28:17.303Z,18.20
2019-03-16T14:30:47.042Z,11.55
2019-03-16T14:33:16.783Z,16.27
2019-03-16T14:35:46.531Z,20.85
2019-03-16T14:38:16.270Z,10.53
2019-03-16T14:40:46.385Z,14.80
2019-03-16T14:43:16.238Z,15.20
2019-03-16T14:45:48.838Z,9.70
2019-03-16T14:48:17.374Z,9.83
2019-03-16T19:19:20.307Z,25.50
2019-03-16T19:21:50.089Z,33.10
2019-03-16T19:24:19.829Z,31.40
2019-03-16T19:26:49.567Z,30.80
2019-03-16T19:29:19.655Z,33.28
2019-03-16T19:31:49.395Z,33.28
2019-03-16T19:34:19.201Z,32.90
2019-03-16T19:36:48.927Z,29.75
2019-03-16T19:39:18.666Z,31.23
2019-03-16T19:41:48.433Z,35.27
2019-03-16T19:44:18.163Z,30.72
2019-03-16T19:46:47.963Z,31.30
2019-03-16T19:49:17.695Z,28.98
2019-03-16T19:51:47.456Z,26.15
2019-03-16T19:54:17.203Z,29.27
2019-03-16T19:56:46.930Z,25.97
2019-03-16T19:59:16.704Z,27.03
2019-03-16T20:01:46.451Z,24.02
2019-03-16T20:04:16.187Z,22.73
2019-03-16T20:06:46.034Z,19.52
2019-03-16T20:09:15.759Z,19.55
2019-03-16T20:11:45.529Z,19.70
2019-03-16T20:14:16.783Z,20.02
2019-03-16T20:16:46.426Z,20.75
2019-03-16T20:19:16.199Z,20.25
2019-03-16T20:21:46.033Z,19.92
2019-03-16T20:24:15.708Z,22.02
2019-03-16T20:26:45.478Z,22.15
2019-03-16T20:29:15.219Z,22.02
2019-03-16T20:31:47.628Z,23.60
2019-03-16T20:34:17.435Z,24.20
2019-03-16T20:36:47.239Z,24.20
2019-03-16T20:39:18.821Z,22.97
2019-03-16T20:41:48.613Z,23.10
2019-03-16T20:44:18.339Z,23.42
2019-03-16T20:46:48.111Z,23.47
2019-03-16T20:49:17.858Z,23.27
2019-03-16T20:51:47.619Z,22.50
2019-03-16T20:54:17.363Z,23.20
2019-03-16T20:56:47.111Z,22.13
2019-03-16T20:59:16.866Z,21.05
2019-03-16T21:01:46.606Z,23.25
2019-03-16T21:04:16.354Z,23.13
2019-03-16T21:06:46.099Z,22.60
2019-03-16T21:09:16.719Z,23.12
2019-03-16T21:11:48.868Z,23.98
2019-03-16T21:14:17.886Z,21.57
2019-03-16T21:16:47.626Z,23.90
2019-03-16T21:19:17.396Z,23.35
2019-03-16T21:21:47.133Z,23.95
2019-03-16T21:24:16.866Z,23.20
2019-03-16T21:26:52.319Z,24.15
2019-03-16T21:29:17.994Z,22.20
2019-03-16T21:31:47.782Z,25.02
2019-03-16T21:34:17.513Z,22.77
2019-03-16T21:36:47.294Z,21.97
2019-03-16T21:39:17.249Z,22.87
2019-03-16T21:41:47.466Z,22.35
2019-03-16T21:44:17.207Z,23.35
2019-03-16T21:46:46.999Z,22.00
2019-03-16T21:49:16.746Z,24.07
2019-03-16T21:51:46.490Z,24.10
2019-03-16T21:54:16.231Z,23.32
2019-03-16T21:56:45.954Z,22.40
2019-03-16T21:59:15.732Z,20.27
2019-03-16T22:01:45.467Z,23.47
2019-03-16T22:04:15.374Z,19.73
2019-03-16T22:06:45.103Z,21.80
2019-03-16T22:09:14.891Z,21.97
2019-03-16T22:11:44.635Z,21.02
2019-03-16T22:14:14.384Z,20.05
2019-03-16T22:16:44.118Z,19.80
2019-03-16T22:19:13.859Z,20.70
2019-03-16T22:21:43.655Z,19.52
2019-03-16T22:24:13.409Z,19.90
2019-03-16T22:26:43.170Z,23.92
2019-03-16T22:29:12.914Z,19.60
2019-03-16T22:31:42.656Z,20.17
2019-03-16T22:34:12.377Z,21.70
2019-03-16T22:36:42.110Z,22.10
2019-03-16T22:39:11.899Z,19.02
2019-03-16T22:41:41.634Z,23.98
2019-03-16T22:44:11.376Z,20.85
2019-03-16T22:46:41.047Z,22.27
2019-03-16T22:49:10.775Z,22.60
2019-03-16T22:51:42.527Z,20.60
2019-03-16T22:54:12.268Z,20.62
2019-03-16T22:56:42.055Z,19.95
2019-03-16T22:59:11.783Z,18.42
2019-03-16T23:01:41.531Z,21.00
2019-03-16T23:04:11.266Z,17.30
2019-03-16T23:06:40.998Z,20.20
2019-03-16T23:09:10.792Z,18.40
2019-03-16T23:11:40.526Z,19.52
2019-03-16T23:14:10.418Z,16.85
2019-03-16T23:16:40.177Z,17.77
2019-03-16T23:19:10.941Z,18.50
2019-03-16T23:21:40.671Z,20.65
2019-03-16T23:24:10.425Z,17.98
2019-03-16T23:26:40.159Z,17.77
2019-03-16T23:29:09.992Z,17.57
2019-03-16T23:34:18.561Z,17.73
2019-03-16T23:36:41.776Z,16.65
2019-03-16T23:39:11.511Z,18.30
2019-03-16T23:41:41.301Z,15.30
2019-03-16T23:44:11.035Z,16.77
2019-03-16T23:46:40.766Z,13.75
2019-03-16T23:49:10.502Z,17.70
2019-03-16T23:51:40.256Z,15.48
2019-03-16T23:54:09.987Z,16.65
2019-03-16T23:56:39.719Z,16.80
2019-03-16T23:59:09.486Z,16.17
